sensor_id;sensor_type;location;lat;lon;timestamp;P1;durP1;ratioP1;P2;durP2;ratioP2
13321;SDS011;6730;46.248;6.930;2024-02-28T00:00:13;4.68;;;4.20;;
13321;SDS011;6730;46.248;6.930;2024-02-28T00:02:39;6.25;;;4.38;;
13321;SDS011;6730;46.248;6.930;2024-02-28T00:05:04;7.70;;;4.65;;
13321;SDS011;6730;46.248;6.930;2024-02-28T00:07:30;4.07;;;3.55;;
13321;SDS011;6730;46.248;6.930;2024-02-28T00:09:56;4.15;;;3.75;;
13321;SDS011;6730;46.248;6.930;2024-02-28T00:12:25;4.57;;;4.18;;
13321;SDS011;6730;46.248;6.930;2024-02-28T00:14:51;5.22;;;3.78;;
13321;SDS011;6730;46.248;6.930;2024-02-28T00:17:17;5.00;;;3.78;;
13321;SDS011;6730;46.248;6.930;2024-02-28T00:19:42;3.85;;;3.30;;
13321;SDS011;6730;46.248;6.930;2024-02-28T00:22:08;4.75;;;3.75;;
13321;SDS011;6730;46.248;6.930;2024-02-28T00:24:34;5.43;;;4.00;;
13321;SDS011;6730;46.248;6.930;2024-02-28T00:27:00;5.05;;;3.47;;
13321;SDS011;6730;46.248;6.930;2024-02-28T00:29:26;5.25;;;4.57;;
13321;SDS011;6730;46.248;6.930;2024-02-28T00:31:52;7.13;;;4.85;;
13321;SDS011;6730;46.248;6.930;2024-02-28T00:34:18;5.90;;;4.28;;
13321;SDS011;6730;46.248;6.930;2024-02-28T00:36:43;3.97;;;3.58;;
13321;SDS011;6730;46.248;6.930;2024-02-28T00:39:10;3.85;;;3.45;;
13321;SDS011;6730;46.248;6.930;2024-02-28T00:41:36;5.65;;;4.60;;
13321;SDS011;6730;46.248;6.930;2024-02-28T00:44:02;5.07;;;4.40;;
13321;SDS011;6730;46.248;6.930;2024-02-28T00:46:28;5.10;;;4.60;;
13321;SDS011;6730;46.248;6.930;2024-02-28T00:48:54;4.68;;;4.13;;
13321;SDS011;6730;46.248;6.930;2024-02-28T00:51:19;5.10;;;4.60;;
13321;SDS011;6730;46.248;6.930;2024-02-28T00:53:45;5.25;;;4.13;;
13321;SDS011;6730;46.248;6.930;2024-02-28T00:56:11;4.68;;;3.80;;
13321;SDS011;6730;46.248;6.930;2024-02-28T00:58:36;4.93;;;4.05;;
13321;SDS011;6730;46.248;6.930;2024-02-28T01:01:03;5.93;;;3.95;;
13321;SDS011;6730;46.248;6.930;2024-02-28T01:03:29;4.82;;;3.90;;
13321;SDS011;6730;46.248;6.930;2024-02-28T01:05:55;4.90;;;4.00;;
13321;SDS011;6730;46.248;6.930;2024-02-28T01:08:21;3.10;;;2.80;;
13321;SDS011;6730;46.248;6.930;2024-02-28T01:10:47;3.50;;;2.72;;
13321;SDS011;6730;46.248;6.930;2024-02-28T01:13:13;3.80;;;2.47;;
13321;SDS011;6730;46.248;6.930;2024-02-28T01:15:41;4.97;;;3.55;;
13321;SDS011;6730;46.248;6.930;2024-02-28T01:18:07;3.53;;;3.10;;
13321;SDS011;6730;46.248;6.930;2024-02-28T01:20:33;5.00;;;3.70;;
13321;SDS011;6730;46.248;6.930;2024-02-28T01:22:59;3.83;;;3.00;;
13321;SDS011;6730;46.248;6.930;2024-02-28T01:25:25;4.00;;;3.03;;
13321;SDS011;6730;46.248;6.930;2024-02-28T01:27:50;4.03;;;3.10;;
13321;SDS011;6730;46.248;6.930;2024-02-28T01:30:16;5.07;;;4.00;;
13321;SDS011;6730;46.248;6.930;2024-02-28T01:32:42;4.80;;;3.83;;
13321;SDS011;6730;46.248;6.930;2024-02-28T01:35:08;6.17;;;5.00;;
13321;SDS011;6730;46.248;6.930;2024-02-28T01:37:34;6.77;;;5.23;;
13321;SDS011;6730;46.248;6.930;2024-02-28T01:39:59;7.13;;;5.40;;
13321;SDS011;6730;46.248;6.930;2024-02-28T01:42:25;6.80;;;5.10;;
13321;SDS011;6730;46.248;6.930;2024-02-28T01:44:55;8.43;;;5.67;;
13321;SDS011;6730;46.248;6.930;2024-02-28T01:47:21;7.40;;;5.37;;
13321;SDS011;6730;46.248;6.930;2024-02-28T01:49:46;7.43;;;5.83;;
13321;SDS011;6730;46.248;6.930;2024-02-28T01:52:12;6.67;;;5.93;;
13321;SDS011;6730;46.248;6.930;2024-02-28T01:54:38;6.93;;;5.77;;
13321;SDS011;6730;46.248;6.930;2024-02-28T01:57:05;8.03;;;6.17;;
13321;SDS011;6730;46.248;6.930;2024-02-28T01:59:31;7.60;;;5.53;;
13321;SDS011;6730;46.248;6.930;2024-02-28T02:01:58;9.00;;;5.77;;
13321;SDS011;6730;46.248;6.930;2024-02-28T02:04:23;5.67;;;5.07;;
13321;SDS011;6730;46.248;6.930;2024-02-28T02:06:50;8.07;;;5.20;;
13321;SDS011;6730;46.248;6.930;2024-02-28T02:09:19;7.13;;;5.13;;
13321;SDS011;6730;46.248;6.930;2024-02-28T02:11:45;6.23;;;5.00;;
13321;SDS011;6730;46.248;6.930;2024-02-28T02:14:10;6.37;;;4.60;;
13321;SDS011;6730;46.248;6.930;2024-02-28T02:16:36;5.13;;;4.03;;
13321;SDS011;6730;46.248;6.930;2024-02-28T02:19:02;6.47;;;4.73;;
13321;SDS011;6730;46.248;6.930;2024-02-28T02:21:34;8.60;;;5.00;;
13321;SDS011;6730;46.248;6.930;2024-02-28T02:24:05;5.30;;;4.23;;
13321;SDS011;6730;46.248;6.930;2024-02-28T02:26:31;4.72;;;4.00;;
13321;SDS011;6730;46.248;6.930;2024-02-28T02:28:56;5.13;;;4.30;;
13321;SDS011;6730;46.248;6.930;2024-02-28T02:31:22;5.40;;;3.93;;
13321;SDS011;6730;46.248;6.930;2024-02-28T02:33:48;4.97;;;4.07;;
13321;SDS011;6730;46.248;6.930;2024-02-28T02:36:13;5.40;;;4.20;;
13321;SDS011;6730;46.248;6.930;2024-02-28T02:38:39;7.10;;;4.97;;
13321;SDS011;6730;46.248;6.930;2024-02-28T02:41:05;5.18;;;4.50;;
13321;SDS011;6730;46.248;6.930;2024-02-28T02:43:30;4.93;;;4.27;;
13321;SDS011;6730;46.248;6.930;2024-02-28T02:45:56;5.73;;;5.10;;
13321;SDS011;6730;46.248;6.930;2024-02-28T02:48:22;6.07;;;4.47;;
13321;SDS011;6730;46.248;6.930;2024-02-28T02:50:47;6.03;;;4.40;;
13321;SDS011;6730;46.248;6.930;2024-02-28T02:53:13;5.63;;;4.33;;
13321;SDS011;6730;46.248;6.930;2024-02-28T02:55:39;5.17;;;4.27;;
13321;SDS011;6730;46.248;6.930;2024-02-28T02:58:04;5.20;;;3.60;;
13321;SDS011;6730;46.248;6.930;2024-02-28T03:00:30;6.38;;;3.97;;
13321;SDS011;6730;46.248;6.930;2024-02-28T03:02:56;5.10;;;4.10;;
13321;SDS011;6730;46.248;6.930;2024-02-28T03:05:21;6.28;;;4.53;;
13321;SDS011;6730;46.248;6.930;2024-02-28T03:07:47;5.53;;;4.57;;
13321;SDS011;6730;46.248;6.930;2024-02-28T03:10:13;6.60;;;4.90;;
13321;SDS011;6730;46.248;6.930;2024-02-28T03:12:38;7.05;;;5.45;;
13321;SDS011;6730;46.248;6.930;2024-02-28T03:15:04;7.33;;;5.37;;
13321;SDS011;6730;46.248;6.930;2024-02-28T03:17:30;8.07;;;5.07;;
13321;SDS011;6730;46.248;6.930;2024-02-28T03:19:56;5.35;;;4.78;;
13321;SDS011;6730;46.248;6.930;2024-02-28T03:22:22;8.15;;;5.32;;
13321;SDS011;6730;46.248;6.930;2024-02-28T03:24:47;8.50;;;5.60;;
13321;SDS011;6730;46.248;6.930;2024-02-28T03:27:13;6.10;;;5.23;;
13321;SDS011;6730;46.248;6.930;2024-02-28T03:29:39;7.97;;;5.43;;
13321;SDS011;6730;46.248;6.930;2024-02-28T03:32:05;6.50;;;5.50;;
13321;SDS011;6730;46.248;6.930;2024-02-28T03:34:31;6.53;;;5.20;;
13321;SDS011;6730;46.248;6.930;2024-02-28T03:36:57;6.37;;;4.97;;
13321;SDS011;6730;46.248;6.930;2024-02-28T03:39:23;6.87;;;4.93;;
13321;SDS011;6730;46.248;6.930;2024-02-28T03:41:49;7.70;;;5.30;;
13321;SDS011;6730;46.248;6.930;2024-02-28T03:44:14;6.20;;;4.55;;
13321;SDS011;6730;46.248;6.930;2024-02-28T03:46:40;5.50;;;4.43;;
13321;SDS011;6730;46.248;6.930;2024-02-28T03:49:06;5.03;;;4.33;;
13321;SDS011;6730;46.248;6.930;2024-02-28T03:51:31;6.28;;;4.50;;
13321;SDS011;6730;46.248;6.930;2024-02-28T03:53:57;7.35;;;4.50;;
13321;SDS011;6730;46.248;6.930;2024-02-28T03:56:26;4.75;;;4.13;;
13321;SDS011;6730;46.248;6.930;2024-02-28T03:58:52;6.30;;;4.82;;
13321;SDS011;6730;46.248;6.930;2024-02-28T04:01:18;6.45;;;4.97;;
13321;SDS011;6730;46.248;6.930;2024-02-28T04:03:44;5.97;;;3.97;;
13321;SDS011;6730;46.248;6.930;2024-02-28T04:06:10;6.25;;;4.43;;
13321;SDS011;6730;46.248;6.930;2024-02-28T04:08:36;5.50;;;4.35;;
13321;SDS011;6730;46.248;6.930;2024-02-28T04:11:02;5.40;;;4.72;;
13321;SDS011;6730;46.248;6.930;2024-02-28T04:13:28;5.80;;;4.32;;
13321;SDS011;6730;46.248;6.930;2024-02-28T04:15:54;4.80;;;4.30;;
13321;SDS011;6730;46.248;6.930;2024-02-28T04:18:19;5.28;;;4.50;;
13321;SDS011;6730;46.248;6.930;2024-02-28T04:20:45;6.85;;;4.88;;
13321;SDS011;6730;46.248;6.930;2024-02-28T04:23:11;6.10;;;4.93;;
13321;SDS011;6730;46.248;6.930;2024-02-28T04:25:36;6.35;;;5.03;;
13321;SDS011;6730;46.248;6.930;2024-02-28T04:28:05;5.68;;;4.20;;
13321;SDS011;6730;46.248;6.930;2024-02-28T04:30:32;5.45;;;4.88;;
13321;SDS011;6730;46.248;6.930;2024-02-28T04:32:57;6.53;;;5.25;;
13321;SDS011;6730;46.248;6.930;2024-02-28T04:35:23;6.07;;;4.75;;
13321;SDS011;6730;46.248;6.930;2024-02-28T04:37:49;5.93;;;5.05;;
13321;SDS011;6730;46.248;6.930;2024-02-28T04:40:15;5.50;;;4.85;;
13321;SDS011;6730;46.248;6.930;2024-02-28T04:42:41;6.35;;;5.13;;
13321;SDS011;6730;46.248;6.930;2024-02-28T04:45:08;5.82;;;4.88;;
13321;SDS011;6730;46.248;6.930;2024-02-28T04:47:34;8.80;;;6.25;;
13321;SDS011;6730;46.248;6.930;2024-02-28T04:50:01;8.02;;;5.40;;
13321;SDS011;6730;46.248;6.930;2024-02-28T04:52:28;5.82;;;4.45;;
13321;SDS011;6730;46.248;6.930;2024-02-28T04:54:53;5.88;;;4.80;;
13321;SDS011;6730;46.248;6.930;2024-02-28T04:57:19;6.25;;;5.32;;
13321;SDS011;6730;46.248;6.930;2024-02-28T04:59:45;5.82;;;4.50;;
13321;SDS011;6730;46.248;6.930;2024-02-28T05:02:11;5.70;;;4.75;;
13321;SDS011;6730;46.248;6.930;2024-02-28T05:04:37;5.63;;;4.63;;
13321;SDS011;6730;46.248;6.930;2024-02-28T05:07:03;6.55;;;4.70;;
13321;SDS011;6730;46.248;6.930;2024-02-28T05:09:28;6.25;;;5.10;;
13321;SDS011;6730;46.248;6.930;2024-02-28T05:11:54;8.18;;;5.70;;
13321;SDS011;6730;46.248;6.930;2024-02-28T05:14:20;8.48;;;6.05;;
13321;SDS011;6730;46.248;6.930;2024-02-28T05:16:49;7.85;;;5.50;;
13321;SDS011;6730;46.248;6.930;2024-02-28T05:19:15;7.50;;;5.28;;
13321;SDS011;6730;46.248;6.930;2024-02-28T05:21:44;6.85;;;5.68;;
13321;SDS011;6730;46.248;6.930;2024-02-28T05:24:10;7.07;;;5.10;;
13321;SDS011;6730;46.248;6.930;2024-02-28T05:26:36;6.97;;;5.95;;
13321;SDS011;6730;46.248;6.930;2024-02-28T05:29:03;7.63;;;5.50;;
13321;SDS011;6730;46.248;6.930;2024-02-28T05:31:29;8.35;;;5.20;;
13321;SDS011;6730;46.248;6.930;2024-02-28T05:33:59;5.80;;;4.88;;
13321;SDS011;6730;46.248;6.930;2024-02-28T05:36:27;6.85;;;4.80;;
13321;SDS011;6730;46.248;6.930;2024-02-28T05:38:54;6.47;;;4.93;;
13321;SDS011;6730;46.248;6.930;2024-02-28T05:41:21;6.57;;;5.07;;
13321;SDS011;6730;46.248;6.930;2024-02-28T05:43:48;9.35;;;5.75;;
13321;SDS011;6730;46.248;6.930;2024-02-28T05:46:17;6.88;;;5.90;;
13321;SDS011;6730;46.248;6.930;2024-02-28T05:48:43;8.35;;;6.43;;
13321;SDS011;6730;46.248;6.930;2024-02-28T05:51:12;9.20;;;6.40;;
13321;SDS011;6730;46.248;6.930;2024-02-28T05:53:38;9.07;;;7.32;;
13321;SDS011;6730;46.248;6.930;2024-02-28T05:56:05;8.27;;;6.60;;
13321;SDS011;6730;46.248;6.930;2024-02-28T05:58:38;7.55;;;6.15;;
13321;SDS011;6730;46.248;6.930;2024-02-28T06:01:04;8.13;;;6.45;;
13321;SDS011;6730;46.248;6.930;2024-02-28T06:03:30;8.10;;;6.38;;
13321;SDS011;6730;46.248;6.930;2024-02-28T06:05:55;9.32;;;6.72;;
13321;SDS011;6730;46.248;6.930;2024-02-28T06:08:23;8.50;;;6.65;;
13321;SDS011;6730;46.248;6.930;2024-02-28T06:10:48;8.82;;;6.05;;
13321;SDS011;6730;46.248;6.930;2024-02-28T06:13:14;10.35;;;7.15;;
13321;SDS011;6730;46.248;6.930;2024-02-28T06:15:40;9.63;;;7.85;;
13321;SDS011;6730;46.248;6.930;2024-02-28T06:18:05;9.77;;;7.28;;
13321;SDS011;6730;46.248;6.930;2024-02-28T06:20:31;7.75;;;6.25;;
13321;SDS011;6730;46.248;6.930;2024-02-28T06:22:57;7.40;;;5.90;;
13321;SDS011;6730;46.248;6.930;2024-02-28T06:25:22;10.75;;;6.38;;
13321;SDS011;6730;46.248;6.930;2024-02-28T06:27:49;8.30;;;6.32;;
13321;SDS011;6730;46.248;6.930;2024-02-28T06:30:15;11.25;;;7.55;;
13321;SDS011;6730;46.248;6.930;2024-02-28T06:32:44;7.45;;;6.32;;
13321;SDS011;6730;46.248;6.930;2024-02-28T06:35:10;8.98;;;6.05;;
13321;SDS011;6730;46.248;6.930;2024-02-28T06:37:36;7.25;;;5.78;;
13321;SDS011;6730;46.248;6.930;2024-02-28T06:40:04;6.35;;;5.38;;
13321;SDS011;6730;46.248;6.930;2024-02-28T06:42:31;8.45;;;6.18;;
13321;SDS011;6730;46.248;6.930;2024-02-28T06:44:56;8.32;;;6.00;;
13321;SDS011;6730;46.248;6.930;2024-02-28T06:47:22;8.18;;;6.30;;
13321;SDS011;6730;46.248;6.930;2024-02-28T06:49:48;7.63;;;5.65;;
13321;SDS011;6730;46.248;6.930;2024-02-28T06:52:14;9.80;;;6.78;;
13321;SDS011;6730;46.248;6.930;2024-02-28T06:54:40;8.50;;;6.50;;
13321;SDS011;6730;46.248;6.930;2024-02-28T06:57:05;8.23;;;5.45;;
13321;SDS011;6730;46.248;6.930;2024-02-28T06:59:31;6.82;;;5.90;;
13321;SDS011;6730;46.248;6.930;2024-02-28T07:02:06;11.20;;;8.70;;
13321;SDS011;6730;46.248;6.930;2024-02-28T07:04:31;7.78;;;6.60;;
13321;SDS011;6730;46.248;6.930;2024-02-28T07:06:57;8.05;;;6.82;;
13321;SDS011;6730;46.248;6.930;2024-02-28T07:09:23;9.55;;;7.80;;
13321;SDS011;6730;46.248;6.930;2024-02-28T07:11:55;11.00;;;8.38;;
13321;SDS011;6730;46.248;6.930;2024-02-28T07:14:23;10.93;;;8.50;;
13321;SDS011;6730;46.248;6.930;2024-02-28T07:16:49;10.85;;;8.82;;
13321;SDS011;6730;46.248;6.930;2024-02-28T07:19:17;12.67;;;9.07;;
13321;SDS011;6730;46.248;6.930;2024-02-28T07:21:43;12.00;;;9.17;;
13321;SDS011;6730;46.248;6.930;2024-02-28T07:24:09;11.73;;;8.83;;
13321;SDS011;6730;46.248;6.930;2024-02-28T07:26:35;10.40;;;8.30;;
13321;SDS011;6730;46.248;6.930;2024-02-28T07:29:00;10.27;;;7.03;;
13321;SDS011;6730;46.248;6.930;2024-02-28T07:31:26;11.32;;;7.97;;
13321;SDS011;6730;46.248;6.930;2024-02-28T07:33:52;9.23;;;7.03;;
13321;SDS011;6730;46.248;6.930;2024-02-28T07:36:19;11.27;;;8.07;;
13321;SDS011;6730;46.248;6.930;2024-02-28T07:38:47;9.77;;;7.07;;
13321;SDS011;6730;46.248;6.930;2024-02-28T07:41:13;9.27;;;6.65;;
13321;SDS011;6730;46.248;6.930;2024-02-28T07:43:42;10.32;;;6.80;;
13321;SDS011;6730;46.248;6.930;2024-02-28T07:46:08;9.23;;;7.93;;
13321;SDS011;6730;46.248;6.930;2024-02-28T07:48:36;9.18;;;7.60;;
13321;SDS011;6730;46.248;6.930;2024-02-28T07:51:05;8.88;;;6.68;;
13321;SDS011;6730;46.248;6.930;2024-02-28T07:53:31;9.00;;;7.20;;
13321;SDS011;6730;46.248;6.930;2024-02-28T07:55:57;10.88;;;7.85;;
13321;SDS011;6730;46.248;6.930;2024-02-28T07:58:23;11.07;;;8.00;;
13321;SDS011;6730;46.248;6.930;2024-02-28T08:00:49;13.50;;;9.05;;
13321;SDS011;6730;46.248;6.930;2024-02-28T08:03:17;9.95;;;6.90;;
13321;SDS011;6730;46.248;6.930;2024-02-28T08:05:43;7.78;;;6.57;;
13321;SDS011;6730;46.248;6.930;2024-02-28T08:08:12;11.70;;;8.38;;
13321;SDS011;6730;46.248;6.930;2024-02-28T08:10:38;9.13;;;6.93;;
13321;SDS011;6730;46.248;6.930;2024-02-28T08:13:04;8.10;;;6.82;;
13321;SDS011;6730;46.248;6.930;2024-02-28T08:15:30;9.82;;;7.72;;
13321;SDS011;6730;46.248;6.930;2024-02-28T08:17:56;11.75;;;8.57;;
13321;SDS011;6730;46.248;6.930;2024-02-28T08:20:23;13.80;;;9.55;;
13321;SDS011;6730;46.248;6.930;2024-02-28T08:22:49;10.85;;;8.32;;
13321;SDS011;6730;46.248;6.930;2024-02-28T08:25:17;10.43;;;7.53;;
13321;SDS011;6730;46.248;6.930;2024-02-28T08:27:43;8.60;;;6.68;;
13321;SDS011;6730;46.248;6.930;2024-02-28T08:30:09;9.85;;;7.18;;
13321;SDS011;6730;46.248;6.930;2024-02-28T08:32:35;10.23;;;8.23;;
13321;SDS011;6730;46.248;6.930;2024-02-28T08:35:00;12.52;;;8.57;;
13321;SDS011;6730;46.248;6.930;2024-02-28T08:37:26;10.85;;;8.48;;
13321;SDS011;6730;46.248;6.930;2024-02-28T08:39:53;12.15;;;9.23;;
13321;SDS011;6730;46.248;6.930;2024-02-28T08:42:24;10.50;;;8.63;;
13321;SDS011;6730;46.248;6.930;2024-02-28T08:44:51;12.50;;;9.27;;
13321;SDS011;6730;46.248;6.930;2024-02-28T08:47:17;10.48;;;8.35;;
13321;SDS011;6730;46.248;6.930;2024-02-28T08:49:44;10.43;;;7.55;;
13321;SDS011;6730;46.248;6.930;2024-02-28T08:52:10;14.05;;;9.85;;
13321;SDS011;6730;46.248;6.930;2024-02-28T08:54:35;10.48;;;8.35;;
13321;SDS011;6730;46.248;6.930;2024-02-28T08:57:01;10.60;;;8.13;;
13321;SDS011;6730;46.248;6.930;2024-02-28T08:59:26;12.75;;;9.00;;
13321;SDS011;6730;46.248;6.930;2024-02-28T09:01:52;10.77;;;9.23;;
13321;SDS011;6730;46.248;6.930;2024-02-28T09:04:18;11.68;;;8.27;;
13321;SDS011;6730;46.248;6.930;2024-02-28T09:06:43;11.45;;;9.00;;
13321;SDS011;6730;46.248;6.930;2024-02-28T09:09:09;11.98;;;8.35;;
13321;SDS011;6730;46.248;6.930;2024-02-28T09:11:35;11.48;;;9.02;;
13321;SDS011;6730;46.248;6.930;2024-02-28T09:14:00;11.73;;;8.85;;
13321;SDS011;6730;46.248;6.930;2024-02-28T09:16:26;15.05;;;8.60;;
13321;SDS011;6730;46.248;6.930;2024-02-28T09:18:52;14.50;;;8.27;;
13321;SDS011;6730;46.248;6.930;2024-02-28T09:21:17;11.35;;;8.43;;
13321;SDS011;6730;46.248;6.930;2024-02-28T09:23:43;11.05;;;8.38;;
13321;SDS011;6730;46.248;6.930;2024-02-28T09:26:09;13.95;;;8.68;;
13321;SDS011;6730;46.248;6.930;2024-02-28T09:28:38;11.32;;;8.73;;
13321;SDS011;6730;46.248;6.930;2024-02-28T09:31:04;12.20;;;9.10;;
13321;SDS011;6730;46.248;6.930;2024-02-28T09:33:29;11.85;;;8.68;;
13321;SDS011;6730;46.248;6.930;2024-02-28T09:35:55;10.45;;;8.27;;
13321;SDS011;6730;46.248;6.930;2024-02-28T09:38:21;11.45;;;8.82;;
13321;SDS011;6730;46.248;6.930;2024-02-28T09:40:47;11.02;;;8.15;;
13321;SDS011;6730;46.248;6.930;2024-02-28T09:43:23;9.85;;;8.52;;
13321;SDS011;6730;46.248;6.930;2024-02-28T09:45:54;14.80;;;8.38;;
13321;SDS011;6730;46.248;6.930;2024-02-28T09:48:25;13.43;;;8.85;;
13321;SDS011;6730;46.248;6.930;2024-02-28T09:50:54;12.63;;;9.25;;
13321;SDS011;6730;46.248;6.930;2024-02-28T09:53:20;12.30;;;8.70;;
13321;SDS011;6730;46.248;6.930;2024-02-28T09:55:47;13.57;;;9.43;;
13321;SDS011;6730;46.248;6.930;2024-02-28T09:58:13;9.60;;;6.78;;
13321;SDS011;6730;46.248;6.930;2024-02-28T10:00:40;12.73;;;9.00;;
13321;SDS011;6730;46.248;6.930;2024-02-28T10:03:09;13.45;;;9.45;;
13321;SDS011;6730;46.248;6.930;2024-02-28T10:05:40;14.52;;;9.98;;
13321;SDS011;6730;46.248;6.930;2024-02-28T10:08:06;11.45;;;8.98;;
13321;SDS011;6730;46.248;6.930;2024-02-28T10:10:36;12.07;;;9.77;;
13321;SDS011;6730;46.248;6.930;2024-02-28T10:13:02;14.98;;;11.02;;
13321;SDS011;6730;46.248;6.930;2024-02-28T10:15:28;12.20;;;9.73;;
13321;SDS011;6730;46.248;6.930;2024-02-28T10:17:55;12.88;;;9.80;;
13321;SDS011;6730;46.248;6.930;2024-02-28T10:20:21;12.55;;;9.30;;
13321;SDS011;6730;46.248;6.930;2024-02-28T10:22:46;15.23;;;9.43;;
13321;SDS011;6730;46.248;6.930;2024-02-28T10:25:14;12.98;;;9.43;;
13321;SDS011;6730;46.248;6.930;2024-02-28T10:27:43;17.42;;;9.68;;
13321;SDS011;6730;46.248;6.930;2024-02-28T10:30:09;11.85;;;9.45;;
13321;SDS011;6730;46.248;6.930;2024-02-28T10:32:35;12.57;;;9.68;;
13321;SDS011;6730;46.248;6.930;2024-02-28T10:35:02;13.45;;;9.57;;
13321;SDS011;6730;46.248;6.930;2024-02-28T10:37:28;11.88;;;9.63;;
13321;SDS011;6730;46.248;6.930;2024-02-28T10:39:58;10.93;;;8.10;;
13321;SDS011;6730;46.248;6.930;2024-02-28T10:42:27;15.55;;;9.95;;
13321;SDS011;6730;46.248;6.930;2024-02-28T10:44:55;13.75;;;10.70;;
13321;SDS011;6730;46.248;6.930;2024-02-28T10:47:23;15.10;;;9.40;;
13321;SDS011;6730;46.248;6.930;2024-02-28T10:49:50;12.55;;;9.18;;
13321;SDS011;6730;46.248;6.930;2024-02-28T10:52:16;11.30;;;9.07;;
13321;SDS011;6730;46.248;6.930;2024-02-28T10:54:46;11.25;;;8.55;;
13321;SDS011;6730;46.248;6.930;2024-02-28T10:57:21;13.10;;;9.65;;
13321;SDS011;6730;46.248;6.930;2024-02-28T10:59:49;14.82;;;9.75;;
13321;SDS011;6730;46.248;6.930;2024-02-28T11:02:16;11.32;;;9.00;;
13321;SDS011;6730;46.248;6.930;2024-02-28T11:04:42;12.18;;;9.05;;
13321;SDS011;6730;46.248;6.930;2024-02-28T11:07:08;12.43;;;7.50;;
13321;SDS011;6730;46.248;6.930;2024-02-28T11:09:34;10.88;;;7.85;;
13321;SDS011;6730;46.248;6.930;2024-02-28T11:11:59;9.63;;;7.13;;
13321;SDS011;6730;46.248;6.930;2024-02-28T11:14:25;11.60;;;8.48;;
13321;SDS011;6730;46.248;6.930;2024-02-28T11:17:01;13.05;;;9.40;;
13321;SDS011;6730;46.248;6.930;2024-02-28T11:19:31;15.85;;;9.63;;
13321;SDS011;6730;46.248;6.930;2024-02-28T11:21:58;12.38;;;9.13;;
13321;SDS011;6730;46.248;6.930;2024-02-28T11:24:33;13.27;;;8.55;;
13321;SDS011;6730;46.248;6.930;2024-02-28T11:27:01;10.68;;;6.97;;
13321;SDS011;6730;46.248;6.930;2024-02-28T11:29:28;12.02;;;8.30;;
13321;SDS011;6730;46.248;6.930;2024-02-28T11:31:54;9.65;;;7.60;;
13321;SDS011;6730;46.248;6.930;2024-02-28T11:34:20;8.85;;;6.75;;
13321;SDS011;6730;46.248;6.930;2024-02-28T11:36:47;12.35;;;8.98;;
13321;SDS011;6730;46.248;6.930;2024-02-28T11:39:14;10.45;;;8.30;;
13321;SDS011;6730;46.248;6.930;2024-02-28T11:41:40;15.13;;;9.80;;
13321;SDS011;6730;46.248;6.930;2024-02-28T11:44:06;12.65;;;9.68;;
13321;SDS011;6730;46.248;6.930;2024-02-28T11:46:32;13.05;;;9.90;;
13321;SDS011;6730;46.248;6.930;2024-02-28T11:48:58;12.70;;;9.63;;
13321;SDS011;6730;46.248;6.930;2024-02-28T11:51:26;11.70;;;8.60;;
13321;SDS011;6730;46.248;6.930;2024-02-28T11:53:51;11.88;;;9.43;;
13321;SDS011;6730;46.248;6.930;2024-02-28T11:56:17;12.95;;;9.45;;
13321;SDS011;6730;46.248;6.930;2024-02-28T11:58:52;11.90;;;9.70;;
13321;SDS011;6730;46.248;6.930;2024-02-28T12:01:41;13.50;;;9.65;;
13321;SDS011;6730;46.248;6.930;2024-02-28T12:04:11;12.73;;;9.10;;
13321;SDS011;6730;46.248;6.930;2024-02-28T12:06:38;14.73;;;9.43;;
13321;SDS011;6730;46.248;6.930;2024-02-28T12:09:05;14.52;;;9.15;;
13321;SDS011;6730;46.248;6.930;2024-02-28T12:11:36;11.40;;;8.95;;
13321;SDS011;6730;46.248;6.930;2024-02-28T12:14:06;13.70;;;9.43;;
13321;SDS011;6730;46.248;6.930;2024-02-28T12:16:34;13.40;;;9.93;;
13321;SDS011;6730;46.248;6.930;2024-02-28T12:19:12;11.60;;;9.45;;
13321;SDS011;6730;46.248;6.930;2024-02-28T12:21:39;12.38;;;9.05;;
13321;SDS011;6730;46.248;6.930;2024-02-28T12:24:08;13.93;;;9.55;;
13321;SDS011;6730;46.248;6.930;2024-02-28T12:26:34;15.82;;;10.35;;
13321;SDS011;6730;46.248;6.930;2024-02-28T12:29:00;11.25;;;8.18;;
13321;SDS011;6730;46.248;6.930;2024-02-28T12:31:26;11.82;;;8.32;;
13321;SDS011;6730;46.248;6.930;2024-02-28T12:33:52;11.27;;;8.23;;
13321;SDS011;6730;46.248;6.930;2024-02-28T12:36:19;12.10;;;8.18;;
13321;SDS011;6730;46.248;6.930;2024-02-28T12:38:45;11.32;;;8.73;;
13321;SDS011;6730;46.248;6.930;2024-02-28T12:41:10;10.18;;;8.88;;
13321;SDS011;6730;46.248;6.930;2024-02-28T12:43:36;15.50;;;8.43;;
13321;SDS011;6730;46.248;6.930;2024-02-28T12:46:04;11.13;;;8.43;;
13321;SDS011;6730;46.248;6.930;2024-02-28T12:48:30;10.02;;;8.15;;
13321;SDS011;6730;46.248;6.930;2024-02-28T12:50:56;12.70;;;9.35;;
13321;SDS011;6730;46.248;6.930;2024-02-28T12:53:22;12.30;;;8.57;;
13321;SDS011;6730;46.248;6.930;2024-02-28T12:55:48;11.38;;;8.90;;
13321;SDS011;6730;46.248;6.930;2024-02-28T12:58:14;10.90;;;8.45;;
13321;SDS011;6730;46.248;6.930;2024-02-28T13:00:39;12.52;;;8.70;;
13321;SDS011;6730;46.248;6.930;2024-02-28T13:03:05;13.10;;;9.15;;
13321;SDS011;6730;46.248;6.930;2024-02-28T13:05:32;13.60;;;9.43;;
13321;SDS011;6730;46.248;6.930;2024-02-28T13:07:58;11.98;;;8.65;;
13321;SDS011;6730;46.248;6.930;2024-02-28T13:10:23;11.65;;;8.35;;
13321;SDS011;6730;46.248;6.930;2024-02-28T13:12:50;11.18;;;8.60;;
13321;SDS011;6730;46.248;6.930;2024-02-28T13:15:16;12.45;;;9.02;;
13321;SDS011;6730;46.248;6.930;2024-02-28T13:17:42;11.07;;;8.32;;
13321;SDS011;6730;46.248;6.930;2024-02-28T13:20:08;12.50;;;7.70;;
13321;SDS011;6730;46.248;6.930;2024-02-28T13:22:34;11.52;;;8.93;;
13321;SDS011;6730;46.248;6.930;2024-02-28T13:25:00;12.52;;;8.60;;
13321;SDS011;6730;46.248;6.930;2024-02-28T13:27:25;11.30;;;8.52;;
13321;SDS011;6730;46.248;6.930;2024-02-28T13:29:52;10.95;;;8.98;;
13321;SDS011;6730;46.248;6.930;2024-02-28T13:32:17;10.60;;;8.10;;
13321;SDS011;6730;46.248;6.930;2024-02-28T13:34:43;10.48;;;8.23;;
13321;SDS011;6730;46.248;6.930;2024-02-28T13:37:09;9.82;;;8.25;;
13321;SDS011;6730;46.248;6.930;2024-02-28T13:39:34;11.82;;;8.77;;
13321;SDS011;6730;46.248;6.930;2024-02-28T13:42:00;13.02;;;8.40;;
13321;SDS011;6730;46.248;6.930;2024-02-28T13:44:26;11.52;;;9.02;;
13321;SDS011;6730;46.248;6.930;2024-02-28T13:46:53;8.38;;;7.25;;
13321;SDS011;6730;46.248;6.930;2024-02-28T13:49:19;9.80;;;7.20;;
13321;SDS011;6730;46.248;6.930;2024-02-28T13:51:45;11.57;;;8.02;;
13321;SDS011;6730;46.248;6.930;2024-02-28T13:54:11;10.02;;;7.43;;
13321;SDS011;6730;46.248;6.930;2024-02-28T13:56:37;10.25;;;7.15;;
13321;SDS011;6730;46.248;6.930;2024-02-28T13:59:02;10.05;;;6.97;;
13321;SDS011;6730;46.248;6.930;2024-02-28T14:01:28;8.43;;;6.45;;
13321;SDS011;6730;46.248;6.930;2024-02-28T14:03:54;8.75;;;6.25;;
13321;SDS011;6730;46.248;6.930;2024-02-28T14:06:19;9.63;;;6.50;;
13321;SDS011;6730;46.248;6.930;2024-02-28T14:08:45;9.85;;;6.57;;
13321;SDS011;6730;46.248;6.930;2024-02-28T14:11:11;7.85;;;5.82;;
13321;SDS011;6730;46.248;6.930;2024-02-28T14:13:37;9.70;;;7.15;;
13321;SDS011;6730;46.248;6.930;2024-02-28T14:16:04;9.07;;;6.53;;
13321;SDS011;6730;46.248;6.930;2024-02-28T14:18:30;10.05;;;7.80;;
13321;SDS011;6730;46.248;6.930;2024-02-28T14:20:56;8.65;;;6.68;;
13321;SDS011;6730;46.248;6.930;2024-02-28T14:23:22;10.05;;;7.15;;
13321;SDS011;6730;46.248;6.930;2024-02-28T14:25:48;9.43;;;6.88;;
13321;SDS011;6730;46.248;6.930;2024-02-28T14:28:13;10.95;;;7.72;;
13321;SDS011;6730;46.248;6.930;2024-02-28T14:30:39;9.35;;;7.25;;
13321;SDS011;6730;46.248;6.930;2024-02-28T14:33:05;10.13;;;7.03;;
13321;SDS011;6730;46.248;6.930;2024-02-28T14:35:31;8.88;;;7.22;;
13321;SDS011;6730;46.248;6.930;2024-02-28T14:37:57;8.75;;;7.05;;
13321;SDS011;6730;46.248;6.930;2024-02-28T14:40:22;10.50;;;7.00;;
13321;SDS011;6730;46.248;6.930;2024-02-28T14:42:48;8.73;;;7.00;;
13321;SDS011;6730;46.248;6.930;2024-02-28T14:45:14;12.23;;;7.78;;
13321;SDS011;6730;46.248;6.930;2024-02-28T14:47:40;11.93;;;7.47;;
13321;SDS011;6730;46.248;6.930;2024-02-28T14:50:06;9.85;;;7.28;;